EHKD

De Kooy Airport

Den Helder, The Netherlands
METAR EHKD 261325Z AUTO 04011KT 350V080 9999 FEW360 22/18 Q1021 BLU 050012KT CAVOK
Observed Flight Rules
May-26 @ 13:25 UTC (29 minutes ago) Visual Flight Rules
Wind Visibility Clouds
40° at 11 knots 10,000+ meters
  • Few at 36,000' AGL
Temperatures Readings
Current 22°C / 72°F
Dewpoint 18°C / 64°F
Humidity 78%
Altimeter 30.15" Hg
Pressure 1021 hPa
Elevation 14
METAR EHKD 261325Z AUTO 04011KT 350V080 9999 FEW360 22/18 Q1021 BLU 050012KT CAVOK
Observed Flight Rules
May-26 @ 13:25 UTC
(29 minutes ago)
VFR
Wind Visibility
40° at 11 knots 10,000+ meters
Clouds
  • Few at 36,000' AGL
Temperature Dewpoint
22°C / 72°F 18°C / 64°F
Humidity Altimeter Pressure
78% 30.15" Hg 1021 hPa